sensor_id;sensor_type;location;lat;lon;timestamp;pressure;altitude;pressure_sealevel;temperature;humidity
34241;BME280;20503;50.200;19.508;2024-02-14T00:00:47;101712.18;;;5.72;53.08
34241;BME280;20503;50.200;19.508;2024-02-14T00:01:53;101710.64;;;5.66;53.50
34241;BME280;20503;50.200;19.508;2024-02-14T00:02:54;101712.30;;;5.88;52.75
34241;BME280;20503;50.200;19.508;2024-02-14T00:03:56;101714.49;;;5.80;52.83
34241;BME280;20503;50.200;19.508;2024-02-14T00:04:57;101713.99;;;5.72;52.77
34241;BME280;20503;50.200;19.508;2024-02-14T00:05:58;101712.30;;;5.88;52.48
34241;BME280;20503;50.200;19.508;2024-02-14T00:07:00;101709.33;;;5.94;52.40
34241;BME280;20503;50.200;19.508;2024-02-14T00:08:02;101701.86;;;6.01;52.53
34241;BME280;20503;50.200;19.508;2024-02-14T00:09:04;101707.08;;;6.04;51.95
34241;BME280;20503;50.200;19.508;2024-02-14T00:10:05;101715.36;;;5.99;51.92
34241;BME280;20503;50.200;19.508;2024-02-14T00:11:07;101715.85;;;5.88;52.47
34241;BME280;20503;50.200;19.508;2024-02-14T00:12:09;101710.20;;;5.94;52.18
34241;BME280;20503;50.200;19.508;2024-02-14T00:13:31;101722.51;;;5.99;52.28
34241;BME280;20503;50.200;19.508;2024-02-14T00:14:35;101705.02;;;6.09;52.32
34241;BME280;20503;50.200;19.508;2024-02-14T00:15:36;101715.44;;;6.15;52.84
34241;BME280;20503;50.200;19.508;2024-02-14T00:16:38;101717.73;;;6.23;52.54
34241;BME280;20503;50.200;19.508;2024-02-14T00:17:40;101721.61;;;6.34;53.25
34241;BME280;20503;50.200;19.508;2024-02-14T00:18:41;101724.00;;;6.23;52.20
34241;BME280;20503;50.200;19.508;2024-02-14T00:19:42;101727.97;;;5.97;52.37
34241;BME280;20503;50.200;19.508;2024-02-14T00:20:45;101716.39;;;6.14;51.91
34241;BME280;20503;50.200;19.508;2024-02-14T00:22:08;101732.49;;;6.14;52.21
34241;BME280;20503;50.200;19.508;2024-02-14T00:23:09;101714.04;;;6.25;51.80
34241;BME280;20503;50.200;19.508;2024-02-14T00:24:12;101722.23;;;5.86;52.42
34241;BME280;20503;50.200;19.508;2024-02-14T00:25:13;101721.82;;;5.76;53.01
34241;BME280;20503;50.200;19.508;2024-02-14T00:26:14;101721.59;;;6.00;52.74
34241;BME280;20503;50.200;19.508;2024-02-14T00:27:16;101720.55;;;6.02;53.36
34241;BME280;20503;50.200;19.508;2024-02-14T00:28:18;101716.24;;;6.17;52.59
34241;BME280;20503;50.200;19.508;2024-02-14T00:29:20;101717.49;;;6.10;53.39
34241;BME280;20503;50.200;19.508;2024-02-14T00:30:23;101716.39;;;6.14;52.78
34241;BME280;20503;50.200;19.508;2024-02-14T00:31:26;101723.52;;;6.32;52.53
34241;BME280;20503;50.200;19.508;2024-02-14T00:32:27;101714.74;;;6.46;52.08
34241;BME280;20503;50.200;19.508;2024-02-14T00:33:28;101720.73;;;6.51;52.05
34241;BME280;20503;50.200;19.508;2024-02-14T00:34:29;101723.14;;;6.40;51.44
34241;BME280;20503;50.200;19.508;2024-02-14T00:35:30;101718.05;;;6.51;52.30
34241;BME280;20503;50.200;19.508;2024-02-14T00:36:32;101721.31;;;6.40;50.91
34241;BME280;20503;50.200;19.508;2024-02-14T00:37:33;101715.85;;;6.42;52.15
34241;BME280;20503;50.200;19.508;2024-02-14T00:38:35;101726.83;;;6.37;52.30
34241;BME280;20503;50.200;19.508;2024-02-14T00:39:37;101718.48;;;6.43;51.89
34241;BME280;20503;50.200;19.508;2024-02-14T00:40:38;101723.00;;;6.07;51.93
34241;BME280;20503;50.200;19.508;2024-02-14T00:41:39;101724.13;;;5.65;52.80
34241;BME280;20503;50.200;19.508;2024-02-14T00:42:41;101718.18;;;5.77;52.88
34241;BME280;20503;50.200;19.508;2024-02-14T00:43:42;101711.33;;;5.53;53.55
34241;BME280;20503;50.200;19.508;2024-02-14T00:44:44;101729.07;;;5.36;53.87
34241;BME280;20503;50.200;19.508;2024-02-14T00:45:45;101719.50;;;5.12;54.48
34241;BME280;20503;50.200;19.508;2024-02-14T00:46:46;101727.04;;;5.41;53.15
34241;BME280;20503;50.200;19.508;2024-02-14T00:47:49;101723.86;;;5.52;53.04
34241;BME280;20503;50.200;19.508;2024-02-14T00:49:04;101735.00;;;5.62;53.08
34241;BME280;20503;50.200;19.508;2024-02-14T00:50:07;101729.05;;;5.74;52.38
34241;BME280;20503;50.200;19.508;2024-02-14T00:51:08;101726.23;;;5.77;52.67
34241;BME280;20503;50.200;19.508;2024-02-14T00:52:10;101724.72;;;5.72;52.62
34241;BME280;20503;50.200;19.508;2024-02-14T00:53:11;101732.05;;;5.49;53.35
34241;BME280;20503;50.200;19.508;2024-02-14T00:54:14;101741.59;;;5.55;53.85
34241;BME280;20503;50.200;19.508;2024-02-14T00:55:41;101745.44;;;5.49;53.39
34241;BME280;20503;50.200;19.508;2024-02-14T00:56:43;101745.66;;;5.44;53.40
34241;BME280;20503;50.200;19.508;2024-02-14T00:57:44;101746.84;;;5.39;53.24
34241;BME280;20503;50.200;19.508;2024-02-14T00:58:45;101740.45;;;5.23;53.03
34241;BME280;20503;50.200;19.508;2024-02-14T00:59:47;101744.64;;;5.28;53.57
34241;BME280;20503;50.200;19.508;2024-02-14T01:00:48;101737.02;;;5.38;53.32
34241;BME280;20503;50.200;19.508;2024-02-14T01:01:50;101736.30;;;5.34;54.11
34241;BME280;20503;50.200;19.508;2024-02-14T01:02:52;101732.91;;;5.50;53.62
34241;BME280;20503;50.200;19.508;2024-02-14T01:03:54;101735.03;;;5.43;53.07
34241;BME280;20503;50.200;19.508;2024-02-14T01:04:56;101740.39;;;5.43;54.04
34241;BME280;20503;50.200;19.508;2024-02-14T01:05:57;101743.62;;;5.50;53.85
34241;BME280;20503;50.200;19.508;2024-02-14T01:06:58;101743.13;;;5.60;52.93
34241;BME280;20503;50.200;19.508;2024-02-14T01:07:59;101732.10;;;5.66;53.21
34241;BME280;20503;50.200;19.508;2024-02-14T01:09:01;101744.35;;;5.34;53.31
34241;BME280;20503;50.200;19.508;2024-02-14T01:10:04;101737.26;;;5.33;53.37
34241;BME280;20503;50.200;19.508;2024-02-14T01:11:15;101736.31;;;5.53;53.51
34241;BME280;20503;50.200;19.508;2024-02-14T01:12:16;101739.22;;;5.49;52.15
34241;BME280;20503;50.200;19.508;2024-02-14T01:13:18;101736.67;;;5.45;52.85
34241;BME280;20503;50.200;19.508;2024-02-14T01:14:20;101742.54;;;5.54;52.99
34241;BME280;20503;50.200;19.508;2024-02-14T01:15:23;101734.08;;;5.63;53.13
34241;BME280;20503;50.200;19.508;2024-02-14T01:16:25;101735.23;;;5.76;52.96
34241;BME280;20503;50.200;19.508;2024-02-14T01:17:28;101738.31;;;5.86;52.43
34241;BME280;20503;50.200;19.508;2024-02-14T01:18:54;101735.72;;;5.84;52.50
34241;BME280;20503;50.200;19.508;2024-02-14T01:19:56;101736.29;;;5.91;52.63
34241;BME280;20503;50.200;19.508;2024-02-14T01:20:59;101738.98;;;5.91;51.99
34241;BME280;20503;50.200;19.508;2024-02-14T01:22:02;101737.22;;;5.90;52.13
34241;BME280;20503;50.200;19.508;2024-02-14T01:23:04;101732.41;;;5.60;52.02
34241;BME280;20503;50.200;19.508;2024-02-14T01:24:28;101742.67;;;5.51;53.69
34241;BME280;20503;50.200;19.508;2024-02-14T01:25:32;101737.76;;;5.79;53.91
34241;BME280;20503;50.200;19.508;2024-02-14T01:26:33;101736.96;;;5.96;53.24
34241;BME280;20503;50.200;19.508;2024-02-14T01:27:35;101737.34;;;4.92;54.97
34241;BME280;20503;50.200;19.508;2024-02-14T01:28:37;101728.57;;;4.89;56.03
34241;BME280;20503;50.200;19.508;2024-02-14T01:29:39;101734.35;;;5.38;55.26
34241;BME280;20503;50.200;19.508;2024-02-14T01:30:40;101725.87;;;5.66;54.97
34241;BME280;20503;50.200;19.508;2024-02-14T01:31:43;101723.63;;;5.76;55.21
34241;BME280;20503;50.200;19.508;2024-02-14T01:32:44;101728.13;;;5.75;54.45
34241;BME280;20503;50.200;19.508;2024-02-14T01:33:45;101721.41;;;6.03;54.86
34241;BME280;20503;50.200;19.508;2024-02-14T01:34:46;101726.16;;;6.15;55.00
34241;BME280;20503;50.200;19.508;2024-02-14T01:35:48;101719.49;;;6.24;54.66
34241;BME280;20503;50.200;19.508;2024-02-14T01:37:09;101733.44;;;6.13;55.04
34241;BME280;20503;50.200;19.508;2024-02-14T01:38:13;101725.33;;;6.49;54.99
34241;BME280;20503;50.200;19.508;2024-02-14T01:39:14;101726.83;;;6.72;54.34
34241;BME280;20503;50.200;19.508;2024-02-14T01:40:16;101727.70;;;6.73;53.65
34241;BME280;20503;50.200;19.508;2024-02-14T01:41:17;101720.71;;;6.86;53.76
34241;BME280;20503;50.200;19.508;2024-02-14T01:42:19;101710.31;;;7.13;53.10
34241;BME280;20503;50.200;19.508;2024-02-14T01:43:21;101718.33;;;6.97;52.20
34241;BME280;20503;50.200;19.508;2024-02-14T01:44:23;101715.39;;;7.02;52.30
34241;BME280;20503;50.200;19.508;2024-02-14T01:45:25;101715.69;;;7.13;52.80
34241;BME280;20503;50.200;19.508;2024-02-14T01:46:28;101712.65;;;7.19;52.30
34241;BME280;20503;50.200;19.508;2024-02-14T01:47:29;101713.54;;;7.20;51.19
34241;BME280;20503;50.200;19.508;2024-02-14T01:48:37;101714.88;;;7.11;51.61
34241;BME280;20503;50.200;19.508;2024-02-14T01:49:41;101716.37;;;6.83;51.89
34241;BME280;20503;50.200;19.508;2024-02-14T01:50:46;101716.48;;;6.64;52.59
34241;BME280;20503;50.200;19.508;2024-02-14T01:52:13;101721.58;;;6.86;52.54
34241;BME280;20503;50.200;19.508;2024-02-14T01:53:16;101722.42;;;6.36;52.46
34241;BME280;20503;50.200;19.508;2024-02-14T01:54:17;101720.13;;;6.29;53.17
34241;BME280;20503;50.200;19.508;2024-02-14T01:55:35;101730.62;;;6.33;53.18
34241;BME280;20503;50.200;19.508;2024-02-14T01:56:38;101722.55;;;6.51;52.39
34241;BME280;20503;50.200;19.508;2024-02-14T01:57:40;101719.95;;;6.66;52.48
34241;BME280;20503;50.200;19.508;2024-02-14T01:58:42;101722.63;;;6.84;51.98
34241;BME280;20503;50.200;19.508;2024-02-14T01:59:44;101722.84;;;6.79;52.97
34241;BME280;20503;50.200;19.508;2024-02-14T02:00:47;101728.87;;;6.67;51.81
34241;BME280;20503;50.200;19.508;2024-02-14T02:01:48;101723.73;;;6.62;52.35
34241;BME280;20503;50.200;19.508;2024-02-14T02:02:49;101726.13;;;6.68;52.70
34241;BME280;20503;50.200;19.508;2024-02-14T02:03:51;101722.23;;;6.74;52.36
34241;BME280;20503;50.200;19.508;2024-02-14T02:04:52;101711.73;;;6.70;52.28
34241;BME280;20503;50.200;19.508;2024-02-14T02:05:55;101724.96;;;6.39;53.46
34241;BME280;20503;50.200;19.508;2024-02-14T02:06:56;101718.05;;;6.51;53.96
34241;BME280;20503;50.200;19.508;2024-02-14T02:07:58;101716.32;;;6.50;53.57
34241;BME280;20503;50.200;19.508;2024-02-14T02:09:00;101724.94;;;6.57;53.92
34241;BME280;20503;50.200;19.508;2024-02-14T02:10:03;101725.72;;;6.76;54.16
34241;BME280;20503;50.200;19.508;2024-02-14T02:11:05;101722.63;;;6.84;54.06
34241;BME280;20503;50.200;19.508;2024-02-14T02:12:08;101712.80;;;7.00;53.67
34241;BME280;20503;50.200;19.508;2024-02-14T02:13:09;101718.20;;;7.16;52.72
34241;BME280;20503;50.200;19.508;2024-02-14T02:14:10;101712.80;;;7.00;53.24
34241;BME280;20503;50.200;19.508;2024-02-14T02:15:13;101722.66;;;7.33;52.96
34241;BME280;20503;50.200;19.508;2024-02-14T02:16:16;101719.35;;;7.43;51.90
34241;BME280;20503;50.200;19.508;2024-02-14T02:17:20;101717.03;;;7.53;52.23
34241;BME280;20503;50.200;19.508;2024-02-14T02:18:48;101727.87;;;7.36;52.21
34241;BME280;20503;50.200;19.508;2024-02-14T02:19:55;101721.17;;;7.43;52.02
34241;BME280;20503;50.200;19.508;2024-02-14T02:20:56;101718.42;;;7.45;52.10
34241;BME280;20503;50.200;19.508;2024-02-14T02:21:58;101719.87;;;7.34;51.22
34241;BME280;20503;50.200;19.508;2024-02-14T02:23:00;101721.86;;;7.31;51.72
34241;BME280;20503;50.200;19.508;2024-02-14T02:24:01;101721.09;;;7.29;52.80
34241;BME280;20503;50.200;19.508;2024-02-14T02:25:03;101717.18;;;7.34;52.01
34241;BME280;20503;50.200;19.508;2024-02-14T02:26:08;101720.16;;;6.97;52.35
34241;BME280;20503;50.200;19.508;2024-02-14T02:27:09;101725.37;;;7.00;52.42
34241;BME280;20503;50.200;19.508;2024-02-14T02:28:11;101724.26;;;7.04;53.34
34241;BME280;20503;50.200;19.508;2024-02-14T02:29:12;101718.43;;;6.96;53.28
34241;BME280;20503;50.200;19.508;2024-02-14T02:30:16;101725.82;;;7.08;53.85
34241;BME280;20503;50.200;19.508;2024-02-14T02:31:19;101721.43;;;6.89;54.20
34241;BME280;20503;50.200;19.508;2024-02-14T02:32:20;101712.29;;;7.09;53.61
34241;BME280;20503;50.200;19.508;2024-02-14T02:33:22;101721.60;;;7.35;53.12
34241;BME280;20503;50.200;19.508;2024-02-14T02:34:24;101723.54;;;7.49;53.79
34241;BME280;20503;50.200;19.508;2024-02-14T02:35:27;101724.57;;;7.47;51.96
34241;BME280;20503;50.200;19.508;2024-02-14T02:36:28;101720.58;;;7.38;52.63
34241;BME280;20503;50.200;19.508;2024-02-14T02:37:40;101726.08;;;7.19;52.14
34241;BME280;20503;50.200;19.508;2024-02-14T02:38:42;101715.69;;;7.13;51.76
34241;BME280;20503;50.200;19.508;2024-02-14T02:39:43;101717.05;;;7.04;52.44
34241;BME280;20503;50.200;19.508;2024-02-14T02:40:44;101722.63;;;7.17;52.45
34241;BME280;20503;50.200;19.508;2024-02-14T02:41:46;101722.50;;;7.36;52.33
34241;BME280;20503;50.200;19.508;2024-02-14T02:42:51;101721.98;;;7.45;52.30
34241;BME280;20503;50.200;19.508;2024-02-14T02:43:53;101722.95;;;7.44;50.96
34241;BME280;20503;50.200;19.508;2024-02-14T02:44:55;101721.02;;;7.46;52.50
34241;BME280;20503;50.200;19.508;2024-02-14T02:45:56;101722.32;;;7.55;52.37
34241;BME280;20503;50.200;19.508;2024-02-14T02:46:58;101726.15;;;7.66;51.75
34241;BME280;20503;50.200;19.508;2024-02-14T02:48:02;101722.06;;;7.75;51.66
34241;BME280;20503;50.200;19.508;2024-02-14T02:49:03;101722.32;;;7.86;51.37
34241;BME280;20503;50.200;19.508;2024-02-14T02:50:04;101730.22;;;7.89;50.94
34241;BME280;20503;50.200;19.508;2024-02-14T02:51:07;101727.36;;;7.77;51.04
34241;BME280;20503;50.200;19.508;2024-02-14T02:52:08;101725.88;;;7.71;51.69
34241;BME280;20503;50.200;19.508;2024-02-14T02:53:11;101723.02;;;7.58;51.21
34241;BME280;20503;50.200;19.508;2024-02-14T02:54:13;101729.22;;;7.27;51.50
34241;BME280;20503;50.200;19.508;2024-02-14T02:55:15;101726.11;;;7.35;51.98
34241;BME280;20503;50.200;19.508;2024-02-14T02:56:19;101721.63;;;7.02;52.18
34241;BME280;20503;50.200;19.508;2024-02-14T02:57:23;101730.75;;;7.15;51.30
34241;BME280;20503;50.200;19.508;2024-02-14T02:58:27;101725.57;;;7.12;52.58
34241;BME280;20503;50.200;19.508;2024-02-14T02:59:29;101725.77;;;6.92;53.35
34241;BME280;20503;50.200;19.508;2024-02-14T03:00:36;101734.11;;;7.03;52.76
34241;BME280;20503;50.200;19.508;2024-02-14T03:01:37;101731.77;;;6.97;53.53
34241;BME280;20503;50.200;19.508;2024-02-14T03:02:41;101729.69;;;7.02;54.31
34241;BME280;20503;50.200;19.508;2024-02-14T03:03:46;101728.96;;;7.16;54.11
34241;BME280;20503;50.200;19.508;2024-02-14T03:04:47;101729.22;;;7.27;53.01
34241;BME280;20503;50.200;19.508;2024-02-14T03:05:48;101731.32;;;7.38;53.20
34241;BME280;20503;50.200;19.508;2024-02-14T03:06:50;101737.85;;;7.50;52.42
34241;BME280;20503;50.200;19.508;2024-02-14T03:07:51;101731.42;;;7.36;51.73
34241;BME280;20503;50.200;19.508;2024-02-14T03:08:53;101735.94;;;7.36;52.30
34241;BME280;20503;50.200;19.508;2024-02-14T03:09:57;101733.84;;;6.92;52.99
34241;BME280;20503;50.200;19.508;2024-02-14T03:11:03;101738.80;;;7.00;52.43
34241;BME280;20503;50.200;19.508;2024-02-14T03:12:05;101742.33;;;5.96;54.75
34241;BME280;20503;50.200;19.508;2024-02-14T03:13:06;101737.32;;;5.69;55.51
34241;BME280;20503;50.200;19.508;2024-02-14T03:14:13;101735.40;;;6.09;54.89
34241;BME280;20503;50.200;19.508;2024-02-14T03:15:16;101732.82;;;6.25;54.47
34241;BME280;20503;50.200;19.508;2024-02-14T03:16:19;101739.53;;;6.34;53.88
34241;BME280;20503;50.200;19.508;2024-02-14T03:17:21;101736.46;;;6.41;54.77
34241;BME280;20503;50.200;19.508;2024-02-14T03:18:22;101726.53;;;6.43;55.33
34241;BME280;20503;50.200;19.508;2024-02-14T03:19:24;101735.04;;;6.69;54.80
34241;BME280;20503;50.200;19.508;2024-02-14T03:20:27;101735.16;;;7.01;53.89
34241;BME280;20503;50.200;19.508;2024-02-14T03:21:31;101730.24;;;7.09;52.35
34241;BME280;20503;50.200;19.508;2024-02-14T03:22:36;101739.14;;;6.59;53.68
34241;BME280;20503;50.200;19.508;2024-02-14T03:23:38;101739.81;;;6.10;54.25
34241;BME280;20503;50.200;19.508;2024-02-14T03:25:01;101753.53;;;5.85;55.38
34241;BME280;20503;50.200;19.508;2024-02-14T03:26:03;101744.03;;;6.16;54.79
34241;BME280;20503;50.200;19.508;2024-02-14T03:27:09;101742.45;;;6.47;54.31
34241;BME280;20503;50.200;19.508;2024-02-14T03:28:23;101742.16;;;6.35;54.39
34241;BME280;20503;50.200;19.508;2024-02-14T03:29:28;101736.38;;;6.26;54.95
34241;BME280;20503;50.200;19.508;2024-02-14T03:30:30;101739.30;;;6.38;55.34
34241;BME280;20503;50.200;19.508;2024-02-14T03:31:34;101740.34;;;6.36;55.56
34241;BME280;20503;50.200;19.508;2024-02-14T03:32:36;101739.47;;;6.53;54.87
34241;BME280;20503;50.200;19.508;2024-02-14T03:33:38;101739.79;;;6.64;54.56
34241;BME280;20503;50.200;19.508;2024-02-14T03:34:39;101739.77;;;6.47;55.05
34241;BME280;20503;50.200;19.508;2024-02-14T03:35:45;101749.24;;;6.71;55.05
34241;BME280;20503;50.200;19.508;2024-02-14T03:36:48;101738.34;;;6.91;55.08
34241;BME280;20503;50.200;19.508;2024-02-14T03:38:04;101749.91;;;7.09;53.81
34241;BME280;20503;50.200;19.508;2024-02-14T03:39:05;101751.58;;;7.12;52.69
34241;BME280;20503;50.200;19.508;2024-02-14T03:40:09;101754.19;;;6.09;54.51
34241;BME280;20503;50.200;19.508;2024-02-14T03:41:10;101744.89;;;6.16;54.61
34241;BME280;20503;50.200;19.508;2024-02-14T03:42:13;101747.83;;;6.47;53.86
34241;BME280;20503;50.200;19.508;2024-02-14T03:43:16;101750.52;;;6.29;54.12
34241;BME280;20503;50.200;19.508;2024-02-14T03:44:17;101741.82;;;6.24;54.00
34241;BME280;20503;50.200;19.508;2024-02-14T03:45:19;101747.91;;;6.28;54.49
34241;BME280;20503;50.200;19.508;2024-02-14T03:46:20;101743.41;;;6.28;54.62
34241;BME280;20503;50.200;19.508;2024-02-14T03:47:22;101750.11;;;6.20;54.34
34241;BME280;20503;50.200;19.508;2024-02-14T03:48:23;101729.51;;;6.20;54.99
34241;BME280;20503;50.200;19.508;2024-02-14T03:49:28;101753.20;;;6.47;54.75
34241;BME280;20503;50.200;19.508;2024-02-14T03:50:32;101749.18;;;6.73;54.00
34241;BME280;20503;50.200;19.508;2024-02-14T03:51:55;101766.87;;;6.77;53.44
34241;BME280;20503;50.200;19.508;2024-02-14T03:52:57;101760.22;;;6.66;53.03
34241;BME280;20503;50.200;19.508;2024-02-14T03:53:58;101759.89;;;6.21;53.40
34241;BME280;20503;50.200;19.508;2024-02-14T03:55:00;101752.48;;;6.43;53.09
34241;BME280;20503;50.200;19.508;2024-02-14T03:56:14;101759.99;;;6.36;53.41
34241;BME280;20503;50.200;19.508;2024-02-14T03:57:17;101760.38;;;6.46;53.31
34241;BME280;20503;50.200;19.508;2024-02-14T03:58:19;101760.46;;;6.62;53.43
34241;BME280;20503;50.200;19.508;2024-02-14T03:59:24;101756.45;;;6.53;53.52
34241;BME280;20503;50.200;19.508;2024-02-14T04:00:25;101755.10;;;6.45;53.09
34241;BME280;20503;50.200;19.508;2024-02-14T04:01:27;101758.56;;;6.29;54.88
34241;BME280;20503;50.200;19.508;2024-02-14T04:02:28;101755.95;;;5.91;55.34
34241;BME280;20503;50.200;19.508;2024-02-14T04:03:30;101754.95;;;5.75;56.05
34241;BME280;20503;50.200;19.508;2024-02-14T04:04:34;101757.81;;;5.70;56.87
34241;BME280;20503;50.200;19.508;2024-02-14T04:05:36;101760.58;;;5.88;56.60
34241;BME280;20503;50.200;19.508;2024-02-14T04:06:37;101751.75;;;6.22;55.07
34241;BME280;20503;50.200;19.508;2024-02-14T04:07:38;101756.45;;;6.36;54.57
34241;BME280;20503;50.200;19.508;2024-02-14T04:08:39;101765.93;;;6.60;54.44
34241;BME280;20503;50.200;19.508;2024-02-14T04:09:40;101760.22;;;6.66;53.78
34241;BME280;20503;50.200;19.508;2024-02-14T04:10:42;101768.38;;;6.65;52.27
34241;BME280;20503;50.200;19.508;2024-02-14T04:11:44;101757.64;;;6.48;53.80
34241;BME280;20503;50.200;19.508;2024-02-14T04:12:46;101765.99;;;6.41;52.87
34241;BME280;20503;50.200;19.508;2024-02-14T04:13:48;101767.99;;;6.19;52.69
34241;BME280;20503;50.200;19.508;2024-02-14T04:14:50;101766.62;;;5.93;53.30
34241;BME280;20503;50.200;19.508;2024-02-14T04:15:51;101772.76;;;5.76;53.11
34241;BME280;20503;50.200;19.508;2024-02-14T04:16:52;101769.30;;;5.93;53.00
34241;BME280;20503;50.200;19.508;2024-02-14T04:17:54;101771.09;;;6.11;52.78
34241;BME280;20503;50.200;19.508;2024-02-14T04:18:55;101762.73;;;6.17;52.32
34241;BME280;20503;50.200;19.508;2024-02-14T04:20:19;101771.49;;;6.21;52.53
34241;BME280;20503;50.200;19.508;2024-02-14T04:21:47;101767.09;;;6.20;52.38
34241;BME280;20503;50.200;19.508;2024-02-14T04:22:50;101773.84;;;6.10;53.54
34241;BME280;20503;50.200;19.508;2024-02-14T04:23:51;101764.49;;;5.81;54.43
34241;BME280;20503;50.200;19.508;2024-02-14T04:24:53;101768.35;;;5.75;54.61
34241;BME280;20503;50.200;19.508;2024-02-14T04:25:54;101767.90;;;5.84;55.34
34241;BME280;20503;50.200;19.508;2024-02-14T04:26:56;101764.79;;;5.93;54.88
34241;BME280;20503;50.200;19.508;2024-02-14T04:27:57;101765.37;;;6.00;54.51
34241;BME280;20503;50.200;19.508;2024-02-14T04:29:00;101771.72;;;6.16;54.69
34241;BME280;20503;50.200;19.508;2024-02-14T04:30:02;101775.62;;;6.28;53.62
34241;BME280;20503;50.200;19.508;2024-02-14T04:31:04;101774.81;;;6.26;54.40
34241;BME280;20503;50.200;19.508;2024-02-14T04:32:05;101779.95;;;6.31;55.28
34241;BME280;20503;50.200;19.508;2024-02-14T04:33:07;101768.11;;;6.35;53.18
34241;BME280;20503;50.200;19.508;2024-02-14T04:34:10;101767.18;;;6.53;53.56
34241;BME280;20503;50.200;19.508;2024-02-14T04:35:14;101772.17;;;6.61;53.17
34241;BME280;20503;50.200;19.508;2024-02-14T04:36:15;101773.84;;;6.10;54.50
34241;BME280;20503;50.200;19.508;2024-02-14T04:37:16;101776.45;;;5.74;54.93
34241;BME280;20503;50.200;19.508;2024-02-14T04:38:40;101779.20;;;6.10;54.36
34241;BME280;20503;50.200;19.508;2024-02-14T04:39:42;101769.53;;;6.25;53.43
34241;BME280;20503;50.200;19.508;2024-02-14T04:40:43;101769.33;;;6.10;52.76
34241;BME280;20503;50.200;19.508;2024-02-14T04:41:45;101764.45;;;6.18;53.39
34241;BME280;20503;50.200;19.508;2024-02-14T04:42:59;101776.89;;;6.02;53.81
34241;BME280;20503;50.200;19.508;2024-02-14T04:44:29;101772.93;;;5.92;54.46
34241;BME280;20503;50.200;19.508;2024-02-14T04:45:56;101775.38;;;5.59;55.26
34241;BME280;20503;50.200;19.508;2024-02-14T04:46:58;101777.18;;;5.77;53.88
34241;BME280;20503;50.200;19.508;2024-02-14T04:47:59;101774.38;;;5.99;54.55
34241;BME280;20503;50.200;19.508;2024-02-14T04:49:02;101780.66;;;5.98;52.23
34241;BME280;20503;50.200;19.508;2024-02-14T04:50:04;101777.27;;;5.76;53.33
34241;BME280;20503;50.200;19.508;2024-02-14T04:51:05;101772.03;;;5.91;53.75
34241;BME280;20503;50.200;19.508;2024-02-14T04:52:07;101790.52;;;5.98;52.74
34241;BME280;20503;50.200;19.508;2024-02-14T04:53:09;101780.03;;;5.93;52.88
34241;BME280;20503;50.200;19.508;2024-02-14T04:54:21;101784.94;;;6.02;52.83
34241;BME280;20503;50.200;19.508;2024-02-14T04:55:40;101784.06;;;6.02;52.45
34241;BME280;20503;50.200;19.508;2024-02-14T04:56:42;101777.45;;;5.90;52.72
34241;BME280;20503;50.200;19.508;2024-02-14T04:57:44;101783.48;;;5.57;52.74
34241;BME280;20503;50.200;19.508;2024-02-14T04:58:45;101775.80;;;5.31;53.71
34241;BME280;20503;50.200;19.508;2024-02-14T04:59:46;101777.48;;;5.13;55.37
34241;BME280;20503;50.200;19.508;2024-02-14T05:00:48;101778.65;;;5.07;56.00
34241;BME280;20503;50.200;19.508;2024-02-14T05:01:49;101769.97;;;5.21;55.51
34241;BME280;20503;50.200;19.508;2024-02-14T05:02:54;101775.16;;;5.44;55.58
34241;BME280;20503;50.200;19.508;2024-02-14T05:03:55;101783.20;;;5.63;54.06
34241;BME280;20503;50.200;19.508;2024-02-14T05:04:57;101778.26;;;5.54;53.90
34241;BME280;20503;50.200;19.508;2024-02-14T05:05:58;101780.38;;;5.48;53.72
34241;BME280;20503;50.200;19.508;2024-02-14T05:07:04;101780.20;;;4.92;54.32
34241;BME280;20503;50.200;19.508;2024-02-14T05:08:06;101784.36;;;5.18;54.07
34241;BME280;20503;50.200;19.508;2024-02-14T05:09:08;101788.68;;;5.23;54.68
34241;BME280;20503;50.200;19.508;2024-02-14T05:10:11;101797.24;;;5.31;53.93
34241;BME280;20503;50.200;19.508;2024-02-14T05:11:35;101797.54;;;5.43;54.15
34241;BME280;20503;50.200;19.508;2024-02-14T05:12:36;101793.99;;;5.43;53.87
34241;BME280;20503;50.200;19.508;2024-02-14T05:14:04;101803.76;;;5.44;53.56
34241;BME280;20503;50.200;19.508;2024-02-14T05:15:06;101794.73;;;5.26;53.00
34241;BME280;20503;50.200;19.508;2024-02-14T05:16:07;101789.55;;;5.42;53.16
34241;BME280;20503;50.200;19.508;2024-02-14T05:17:11;101789.79;;;5.56;52.82
34241;BME280;20503;50.200;19.508;2024-02-14T05:18:23;101797.02;;;5.54;53.15
34241;BME280;20503;50.200;19.508;2024-02-14T05:19:51;101797.24;;;5.50;53.28
34241;BME280;20503;50.200;19.508;2024-02-14T05:20:54;101785.95;;;5.43;53.36
34241;BME280;20503;50.200;19.508;2024-02-14T05:21:55;101791.82;;;5.51;53.21
34241;BME280;20503;50.200;19.508;2024-02-14T05:22:56;101790.27;;;5.45;53.28
34241;BME280;20503;50.200;19.508;2024-02-14T05:23:57;101796.10;;;5.55;52.88
34241;BME280;20503;50.200;19.508;2024-02-14T05:24:59;101793.06;;;5.63;53.85
34241;BME280;20503;50.200;19.508;2024-02-14T05:26:03;101790.63;;;5.38;53.64
34241;BME280;20503;50.200;19.508;2024-02-14T05:27:04;101783.91;;;5.09;53.12
34241;BME280;20503;50.200;19.508;2024-02-14T05:28:35;101796.46;;;4.88;54.23
34241;BME280;20503;50.200;19.508;2024-02-14T05:30:03;101799.77;;;4.52;55.67
34241;BME280;20503;50.200;19.508;2024-02-14T05:31:21;101798.59;;;4.59;56.06
34241;BME280;20503;50.200;19.508;2024-02-14T05:32:25;101788.15;;;4.74;56.27
34241;BME280;20503;50.200;19.508;2024-02-14T05:33:26;101791.31;;;4.83;56.56
34241;BME280;20503;50.200;19.508;2024-02-14T05:34:28;101791.72;;;4.94;55.27
34241;BME280;20503;50.200;19.508;2024-02-14T05:35:29;101795.71;;;5.05;56.29